Garwood, NJ (07027)

05:57 PM EDT die 23o March, anno 2017 (GMT -0400)
Garwood | | Change Station

Elev 102 ft 40.65 °N, 74.33 °W | Updated 34 seconds ago

Serena
Serena
44.2 °F
Feels Like 44 °F
N
2.0
Ventus Variabilis Ventus from Magis Auster quam Zephyrus

Hodie
High -- | Low -- °F
--% Chance of Precip.
Yesterday
High -- | Low -- °F
Precip. -- in
Pressio 30.51 in
Visibilitas 10.0 milia passuum
Clouds Serena
Frigus Venti 44 °F
Frigus in quo Ros apparet 4 °F
Umor 19%
Rainfall 0.00 in
Snow Depth Not available.
6:55 AM 7:12 PM
Waning Crescent, 20% visible
METAR KLDJ 232215Z AUTO 29006KT 10SM CLR 06/M17 A3051 RMK AO2 T00601170
Pressio 30.51 in
Visibilitas 10.0 milia passuum
Clouds Serena
Frigus Venti 44 °F
Frigus in quo Ros apparet 4 °F
Umor 19%
Rainfall 0.00 in
Snow Depth Not available.
6:55 AM 7:12 PM
Waning Crescent, 20% visible
METAR KLDJ 232215Z AUTO 29006KT 10SM CLR 06/M17 A3051 RMK AO2 T00601170

Get Severe Weather Alerts

Thanks for signing up!

Be on the lookout for a verification email in your inbox.

You'll start receiving the daily forecast at 8 AM.

×

10-Day Weather Forecast

Almanac

Astronomy

Mar. 23, 2017 Rise Set
Actual Time
Civil Twilight
Nautical Twilight
Astronomical Twilight
Moon
Length Of Visible Light
Length of Day
Tomorrow will be .
, % of the Moon is Illuminated

Today's Extremes

State Highs State Lows

Community

WunderPhotos

Upload Photos

1,962,540 photos uploaded!

WunderBlog® & News

Nearby

Air Quality

  Air Quality AQ Index Pollutant
Not available.

Snow Depth

Station Depth Elevation

Earthquake Activity

City Distance Mag. Time & Date
Minimum magnitude displayed is 2.5.

Earthquake Activity

City Distance Mag. Time & Date
Minimum magnitude displayed is 2.5.

Coastal Water Temperatures

Locus Calor

Stations

Nearby Weather Stations

Station Location Temp Frigus Venti Frigus in quo Ros apparet Umor Ventus Precip. Elev Renovata Type
                   

Watches & Warnings

There are currently no watches in effect.